createdAt,value
2023-08-08T00:01:00.977Z,101250.25
2023-08-08T00:03:28.566Z,101253.72
2023-08-08T00:05:55.929Z,101260.06
2023-08-08T00:08:23.376Z,101246.78
2023-08-08T00:10:50.701Z,101249.44
2023-08-08T00:13:18.041Z,101243.38
2023-08-08T00:15:45.911Z,101266.25
2023-08-08T00:18:13.300Z,101250.44
2023-08-08T00:20:40.734Z,101255.63
2023-08-08T00:23:08.122Z,101252.25
2023-08-08T00:25:35.478Z,101251.28
2023-08-08T00:28:02.885Z,101247.81
2023-08-08T00:30:30.297Z,101245.09
2023-08-08T00:32:57.711Z,101243.38
2023-08-08T00:35:25.249Z,101239.81
2023-08-08T00:37:52.599Z,101245.84
2023-08-08T00:40:20.058Z,101237.94
2023-08-08T00:42:47.410Z,101237.94
2023-08-08T00:45:14.830Z,101237.84
2023-08-08T00:47:43.769Z,101230.13
2023-08-08T00:50:12.492Z,101230.22
2023-08-08T00:52:43.322Z,101245.09
2023-08-08T00:55:11.230Z,101231.19
2023-08-08T00:57:39.716Z,101232.00
2023-08-08T01:00:11.665Z,101237.19
2023-08-08T01:02:40.423Z,101224.00
2023-08-08T01:05:09.428Z,101222.22
2023-08-08T01:08:05.325Z,101235.28
2023-08-08T01:10:41.938Z,101231.72
2023-08-08T01:13:25.230Z,101222.13
2023-08-08T01:15:56.831Z,101224.75
2023-08-08T01:18:25.622Z,101232.66
2023-08-08T01:20:56.572Z,101219.41
2023-08-08T01:23:42.416Z,101222.22
2023-08-08T01:26:09.906Z,101218.75
2023-08-08T01:28:37.966Z,101226.84
2023-08-08T01:31:05.542Z,101222.97
2023-08-08T01:33:32.963Z,101231.50
2023-08-08T01:36:23.833Z,101227.16
2023-08-08T01:39:00.895Z,101219.03
2023-08-08T01:41:28.898Z,101218.84
2023-08-08T01:43:56.560Z,101225.97
2023-08-08T01:46:26.985Z,101227.25
2023-08-08T01:48:54.787Z,101222.94
2023-08-08T01:51:22.891Z,101221.25
2023-08-08T01:53:50.712Z,101222.19
2023-08-08T01:56:18.196Z,101218.91
2023-08-08T01:58:45.540Z,101225.75
2023-08-08T02:01:12.991Z,101222.28
2023-08-08T02:03:40.590Z,101217.00
2023-08-08T02:06:08.027Z,101215.13
2023-08-08T02:08:36.800Z,101212.69
2023-08-08T02:11:04.305Z,101227.63
2023-08-08T02:13:31.753Z,101218.97
2023-08-08T02:15:59.176Z,101216.25
2023-08-08T02:18:27.639Z,101217.94
2023-08-08T02:20:54.976Z,101200.56
2023-08-08T02:23:22.396Z,101200.22
2023-08-08T02:25:49.776Z,101195.69
2023-08-08T02:28:17.185Z,101193.25
2023-08-08T02:30:45.701Z,101196.53
2023-08-08T02:33:13.129Z,101191.38
2023-08-08T02:35:40.805Z,101190.44
2023-08-08T02:38:08.152Z,101190.25
2023-08-08T02:40:35.504Z,101185.75
2023-08-08T02:43:03.126Z,101184.81
2023-08-08T02:45:30.561Z,101189.25
2023-08-08T02:47:58.008Z,101179.56
2023-08-08T02:50:25.452Z,101172.66
2023-08-08T02:52:53.559Z,101176.81
2023-08-08T02:55:24.225Z,101170.50
2023-08-08T02:57:53.350Z,101167.31
2023-08-08T03:00:21.611Z,101167.78
2023-08-08T03:02:53.081Z,101171.19
2023-08-08T03:05:21.182Z,101162.44
2023-08-08T03:07:49.721Z,101161.41
2023-08-08T03:10:17.197Z,101163.13
2023-08-08T03:12:44.962Z,101182.38
2023-08-08T03:15:12.878Z,101164.69
2023-08-08T03:17:40.998Z,101161.22
2023-08-08T03:20:09.853Z,101157.75
2023-08-08T03:22:37.583Z,101175.31
2023-08-08T03:25:06.526Z,101164.88
2023-08-08T03:27:34.123Z,101158.88
2023-08-08T03:30:01.759Z,101171.28
2023-08-08T03:32:34.093Z,101167.88
2023-08-08T03:35:01.539Z,101165.56
2023-08-08T03:37:28.974Z,101177.75
2023-08-08T03:39:58.624Z,101176.16
2023-08-08T03:42:25.950Z,101174.47
2023-08-08T03:44:53.348Z,101176.25
2023-08-08T03:47:20.772Z,101165.84
2023-08-08T03:49:48.581Z,101167.59
2023-08-08T03:52:16.228Z,101171.28
2023-08-08T03:54:45.291Z,101166.94
2023-08-08T03:57:12.863Z,101160.84
2023-08-08T03:59:40.325Z,101154.81
2023-08-08T04:02:07.907Z,101139.38
2023-08-08T04:04:35.273Z,101147.00
2023-08-08T04:07:02.681Z,101147.97
2023-08-08T04:09:30.064Z,101141.91
2023-08-08T04:11:57.946Z,101147.44
2023-08-08T04:14:25.551Z,101153.59
2023-08-08T04:16:52.981Z,101140.00
2023-08-08T04:19:20.423Z,101155.63
2023-08-08T04:21:47.836Z,101147.91
2023-08-08T04:24:15.196Z,101153.16
2023-08-08T04:26:42.698Z,101141.06
2023-08-08T04:29:10.066Z,101144.63
2023-08-08T04:31:37.452Z,101149.88
2023-08-08T04:34:04.880Z,101149.03
2023-08-08T04:36:32.269Z,101143.88
2023-08-08T04:38:59.745Z,101148.25
2023-08-08T04:41:27.176Z,101151.06
2023-08-08T04:43:54.514Z,101156.25
2023-08-08T04:46:22.012Z,101161.31
2023-08-08T04:48:50.572Z,101159.47
2023-08-08T04:51:18.099Z,101157.59
2023-08-08T04:53:45.434Z,101154.97
2023-08-08T04:56:12.817Z,101152.41
2023-08-08T04:58:40.146Z,101152.41
2023-08-08T05:01:10.054Z,101141.41
2023-08-08T05:03:37.847Z,101142.16
2023-08-08T05:06:05.392Z,101155.88
2023-08-08T05:08:32.879Z,101145.38
2023-08-08T05:11:00.373Z,101138.16
2023-08-08T05:13:27.961Z,101143.16
2023-08-08T05:15:55.361Z,101139.47
2023-08-08T05:18:22.760Z,101143.72
2023-08-08T05:20:50.447Z,101145.50
2023-08-08T05:23:20.214Z,101141.91
2023-08-08T05:25:48.752Z,101149.81
2023-08-08T05:28:17.346Z,101141.75
2023-08-08T05:30:44.753Z,101142.44
2023-08-08T05:33:12.202Z,101137.81
2023-08-08T05:35:39.644Z,101141.28
2023-08-08T05:38:08.303Z,101147.41
2023-08-08T05:40:37.338Z,101143.63
2023-08-08T05:43:05.312Z,101146.66
2023-08-08T05:45:33.116Z,101156.91
2023-08-08T05:48:01.665Z,101148.81
2023-08-08T05:50:29.611Z,101151.25
2023-08-08T05:52:57.086Z,101148.38
2023-08-08T05:55:24.400Z,101146.53
2023-08-08T05:57:51.778Z,101148.97
2023-08-08T06:00:19.657Z,101147.19
2023-08-08T06:02:47.390Z,101146.25
2023-08-08T06:05:14.800Z,101155.53
2023-08-08T06:07:42.160Z,101153.31
2023-08-08T06:10:11.400Z,101145.97
2023-08-08T06:12:38.792Z,101156.41
2023-08-08T06:15:07.466Z,101152.25
2023-08-08T06:17:34.904Z,101155.25
2023-08-08T06:20:02.430Z,101158.44
2023-08-08T06:22:29.872Z,101163.41
2023-08-08T06:24:57.197Z,101168.28
2023-08-08T06:27:24.705Z,101165.38
2023-08-08T06:29:52.537Z,101171.88
2023-08-08T06:32:19.872Z,101170.63
2023-08-08T06:34:47.254Z,101171.28
2023-08-08T06:37:14.839Z,101167.41
2023-08-08T06:39:42.976Z,101167.94
2023-08-08T06:42:10.363Z,101184.97
2023-08-08T06:44:52.940Z,101177.59
2023-08-08T06:47:20.308Z,101181.50
2023-08-08T06:49:47.727Z,101178.56
2023-08-08T06:52:15.053Z,101177.28
2023-08-08T06:54:43.527Z,101174.88
2023-08-08T06:57:10.918Z,101173.41
2023-08-08T06:59:38.348Z,101177.16
2023-08-08T07:02:07.069Z,101177.56
2023-08-08T07:04:34.841Z,101176.94
2023-08-08T07:07:02.336Z,101186.88
2023-08-08T07:09:29.755Z,101178.34
2023-08-08T07:11:58.373Z,101182.47
2023-08-08T07:14:26.219Z,101186.06
2023-08-08T07:16:54.561Z,101193.66
2023-08-08T07:19:22.309Z,101185.53
2023-08-08T07:21:49.837Z,101179.94
2023-08-08T07:24:18.171Z,101190.69
2023-08-08T07:26:46.667Z,101184.78
2023-08-08T07:29:14.116Z,101179.72
2023-08-08T07:31:41.498Z,101181.72
2023-08-08T07:34:08.869Z,101180.44
2023-08-08T07:36:36.418Z,101180.31
2023-08-08T07:39:03.880Z,101177.78
2023-08-08T07:41:32.166Z,101176.53
2023-08-08T07:43:59.533Z,101177.66
2023-08-08T07:46:27.144Z,101170.03
2023-08-08T07:48:54.682Z,101172.25
2023-08-08T07:51:22.216Z,101173.47
2023-08-08T07:53:49.614Z,101168.16
2023-08-08T07:56:17.046Z,101171.78
2023-08-08T07:58:44.431Z,101168.22
2023-08-08T08:01:12.990Z,101167.78
2023-08-08T08:03:41.554Z,101171.78
2023-08-08T08:06:09.066Z,101175.09
2023-08-08T08:08:36.405Z,101171.66
2023-08-08T08:11:04.733Z,101169.53
2023-08-08T08:13:32.177Z,101168.34
2023-08-08T08:15:59.761Z,101173.03
2023-08-08T08:18:27.131Z,101164.25
2023-08-08T08:20:54.597Z,101171.34
2023-08-08T08:23:22.007Z,101175.81
2023-08-08T08:25:49.900Z,101177.88
2023-08-08T08:28:18.054Z,101180.88
2023-08-08T08:30:45.467Z,101174.81
2023-08-08T08:33:12.971Z,101173.41
2023-08-08T08:35:40.332Z,101169.28
2023-08-08T08:38:08.260Z,101164.38
2023-08-08T08:40:41.068Z,101168.09
2023-08-08T08:43:11.740Z,101158.00
2023-08-08T08:45:41.862Z,101162.06
2023-08-08T08:48:12.543Z,101169.88
2023-08-08T08:50:41.125Z,101166.13
2023-08-08T08:53:11.020Z,101169.97
2023-08-08T08:55:38.562Z,101172.50
2023-08-08T08:58:07.093Z,101167.47
2023-08-08T09:00:36.236Z,101162.69
2023-08-08T09:03:06.037Z,101173.91
2023-08-08T09:05:34.926Z,101148.25
2023-08-08T09:08:02.369Z,101165.59
2023-08-08T09:10:36.202Z,101160.91
2023-08-08T09:13:03.621Z,101165.47
2023-08-08T09:15:35.715Z,101164.16
2023-08-08T09:18:03.957Z,101165.84
2023-08-08T09:20:31.930Z,101154.63
2023-08-08T09:22:59.427Z,101165.22
2023-08-08T09:25:28.197Z,101160.44
2023-08-08T09:27:56.227Z,101157.97
2023-08-08T09:30:24.105Z,101158.53
2023-08-08T09:32:53.030Z,101167.84
2023-08-08T09:35:20.719Z,101163.00
2023-08-08T09:37:48.199Z,101164.41
2023-08-08T09:40:16.018Z,101173.13
2023-08-08T09:42:43.480Z,101180.88
2023-08-08T09:45:11.531Z,101179.66
2023-08-08T09:47:39.888Z,101180.69
2023-08-08T09:50:08.792Z,101180.94
2023-08-08T09:52:40.192Z,101184.94
2023-08-08T09:55:08.905Z,101183.97
2023-08-08T09:57:36.906Z,101180.56
2023-08-08T10:00:06.958Z,101193.31
2023-08-08T10:02:36.205Z,101179.34
2023-08-08T10:05:06.158Z,101192.78
2023-08-08T10:07:33.670Z,101176.38
2023-08-08T10:10:01.188Z,101180.22
2023-08-08T10:12:28.949Z,101181.16
2023-08-08T10:14:57.227Z,101183.19
2023-08-08T10:17:24.851Z,101186.84
2023-08-08T10:19:55.906Z,101181.91
2023-08-08T10:22:26.030Z,101190.47
2023-08-08T10:24:55.645Z,101184.16
2023-08-08T10:27:34.786Z,101186.97
2023-08-08T10:30:14.949Z,101180.41
2023-08-08T10:32:50.004Z,101192.59
2023-08-08T10:35:17.793Z,101190.78
2023-08-08T10:37:55.766Z,101192.88
2023-08-08T10:40:23.385Z,101192.16
2023-08-08T10:42:53.130Z,101197.91
2023-08-08T10:45:20.590Z,101187.59
2023-08-08T10:47:48.040Z,101194.03
2023-08-08T10:50:23.826Z,101185.28
2023-08-08T10:52:54.105Z,101192.28
2023-08-08T10:55:32.240Z,101179.94
2023-08-08T10:58:12.166Z,101180.47
2023-08-08T11:00:41.827Z,101172.47
2023-08-08T11:03:10.269Z,101177.22
2023-08-08T11:05:39.914Z,101183.66
2023-08-08T11:08:09.510Z,101191.66
2023-08-08T11:10:42.748Z,101174.34
2023-08-08T11:13:10.617Z,101172.31
2023-08-08T11:15:40.327Z,101186.09
2023-08-08T11:18:09.526Z,101173.50
2023-08-08T11:20:38.264Z,101175.50
2023-08-08T11:23:07.177Z,101165.13
2023-08-08T11:25:34.831Z,101167.50
2023-08-08T11:28:02.355Z,101164.72
2023-08-08T11:30:36.185Z,101159.22
2023-08-08T11:35:35.408Z,101159.91
2023-08-08T11:38:05.574Z,101154.25
2023-08-08T11:40:34.026Z,101160.44
2023-08-08T11:43:01.954Z,101158.63
2023-08-08T11:45:29.575Z,101161.28
2023-08-08T11:47:58.871Z,101160.31
2023-08-08T11:50:29.353Z,101151.63
2023-08-08T11:52:57.277Z,101161.00
2023-08-08T11:55:31.625Z,101153.56
2023-08-08T11:58:01.095Z,101159.44
2023-08-08T12:00:32.790Z,101166.03
2023-08-08T12:03:05.301Z,101166.03
2023-08-08T12:05:39.520Z,101162.69
2023-08-08T12:08:07.999Z,101166.44
2023-08-08T12:10:35.597Z,101166.50
2023-08-08T12:13:03.357Z,101165.78
2023-08-08T12:15:35.967Z,101170.03
2023-08-08T12:18:04.826Z,101161.53
2023-08-08T12:20:33.173Z,101152.47
2023-08-08T12:23:01.527Z,101153.88
2023-08-08T12:25:29.043Z,101166.22
2023-08-08T12:27:56.646Z,101158.25
2023-08-08T12:30:24.121Z,101156.69
2023-08-08T12:32:51.553Z,101157.38
2023-08-08T12:35:18.979Z,101152.94
2023-08-08T12:37:46.369Z,101158.53
2023-08-08T12:40:14.577Z,101154.31
2023-08-08T12:42:42.787Z,101150.53
2023-08-08T12:45:11.853Z,101146.91
2023-08-08T12:47:39.489Z,101155.44
2023-08-08T12:50:09.109Z,101153.50
2023-08-08T12:52:37.460Z,101141.59
2023-08-08T12:55:06.388Z,101153.53
2023-08-08T12:57:34.251Z,101143.16
2023-08-08T13:00:02.999Z,101150.16
2023-08-08T13:02:30.565Z,101154.78
2023-08-08T13:04:57.988Z,101155.31
2023-08-08T13:07:25.537Z,101143.69
2023-08-08T13:09:53.092Z,101153.50
2023-08-08T13:12:20.454Z,101153.53
2023-08-08T13:14:48.534Z,101149.19
2023-08-08T13:17:15.967Z,101153.09
2023-08-08T13:19:43.501Z,101150.31
2023-08-08T13:22:10.915Z,101153.91
2023-08-08T13:24:38.737Z,101153.66
2023-08-08T13:27:06.716Z,101151.16
2023-08-08T13:29:34.131Z,101145.78
2023-08-08T13:32:01.705Z,101156.16
2023-08-08T13:34:29.738Z,101156.28
2023-08-08T13:36:57.165Z,101144.13
2023-08-08T13:39:24.656Z,101159.88
2023-08-08T13:41:52.057Z,101161.75
2023-08-08T13:44:19.422Z,101157.16
2023-08-08T13:46:47.814Z,101162.06
2023-08-08T13:49:15.239Z,101160.75
2023-08-08T13:51:43.198Z,101149.78
2023-08-08T13:54:12.302Z,101165.16
2023-08-08T13:56:39.611Z,101158.22
2023-08-08T13:59:06.967Z,101171.06
2023-08-08T14:01:34.361Z,101164.16
2023-08-08T14:04:02.745Z,101167.16
2023-08-08T14:06:31.252Z,101164.91
2023-08-08T14:08:58.890Z,101173.59
2023-08-08T14:11:26.432Z,101162.78
2023-08-08T14:13:53.795Z,101160.75
2023-08-08T14:16:21.251Z,101155.41
2023-08-08T14:18:48.863Z,101163.44
2023-08-08T14:21:16.677Z,101155.72
2023-08-08T14:23:45.385Z,101161.78
2023-08-08T14:26:12.732Z,101161.09
2023-08-08T14:28:40.205Z,101159.59
2023-08-08T14:31:07.593Z,101160.94
2023-08-08T14:33:35.597Z,101159.13
2023-08-08T14:36:03.054Z,101152.25
2023-08-08T14:38:37.468Z,101164.50
2023-08-08T14:41:05.168Z,101163.56
2023-08-08T14:43:32.665Z,101166.84
2023-08-08T14:46:00.254Z,101160.28
2023-08-08T14:48:28.225Z,101156.78
2023-08-08T14:50:55.785Z,101147.28
2023-08-08T14:53:23.218Z,101145.53
2023-08-08T14:55:51.092Z,101159.34
2023-08-08T14:58:19.915Z,101151.44
2023-08-08T15:00:49.412Z,101153.13
2023-08-08T15:03:20.053Z,101159.59
2023-08-08T15:05:49.806Z,101161.66
2023-08-08T15:08:17.507Z,101158.75
2023-08-08T15:10:45.898Z,101162.44
2023-08-08T15:13:13.268Z,101162.25
2023-08-08T15:15:41.145Z,101168.28
2023-08-08T15:18:08.717Z,101165.84
2023-08-08T15:20:37.288Z,101162.63
2023-08-08T15:23:04.840Z,101176.00
2023-08-08T15:25:32.228Z,101174.09
2023-08-08T15:27:59.604Z,101179.47
2023-08-08T15:30:28.020Z,101170.91
2023-08-08T15:32:55.457Z,101174.50
2023-08-08T15:35:23.098Z,101169.06
2023-08-08T15:37:50.499Z,101176.19
2023-08-08T15:40:18.291Z,101184.19
2023-08-08T15:42:47.537Z,101181.22
2023-08-08T15:45:14.957Z,101190.91
2023-08-08T15:47:42.383Z,101184.06
2023-08-08T15:50:12.753Z,101182.81
2023-08-08T15:52:40.134Z,101187.13
2023-08-08T15:55:10.465Z,101178.28
2023-08-08T15:57:38.130Z,101177.84
2023-08-08T16:00:07.249Z,101175.03
2023-08-08T16:02:39.729Z,101176.13
2023-08-08T16:05:07.826Z,101177.63
2023-08-08T16:07:35.472Z,101180.13
2023-08-08T16:10:05.086Z,101184.31
2023-08-08T16:12:33.557Z,101175.84
2023-08-08T16:15:00.960Z,101174.97
2023-08-08T16:17:28.398Z,101184.88
2023-08-08T16:19:55.740Z,101189.41
2023-08-08T16:22:23.422Z,101196.59
2023-08-08T16:24:53.112Z,101195.97
2023-08-08T16:27:20.419Z,101194.53
2023-08-08T16:29:47.909Z,101194.50
2023-08-08T16:32:15.315Z,101192.34
2023-08-08T16:34:42.720Z,101195.44
2023-08-08T16:37:10.098Z,101188.59
2023-08-08T16:39:37.432Z,101188.13
2023-08-08T16:42:04.926Z,101170.25
2023-08-08T16:44:32.275Z,101164.59
2023-08-08T16:46:59.794Z,101162.88
2023-08-08T16:49:27.801Z,101149.13
2023-08-08T16:51:58.298Z,101147.63
2023-08-08T16:54:27.313Z,101146.53
2023-08-08T16:56:54.712Z,101141.81
2023-08-08T16:59:22.083Z,101137.13
2023-08-08T17:01:50.411Z,101141.31
2023-08-08T17:04:20.536Z,101153.63
2023-08-08T17:06:47.995Z,101151.22
2023-08-08T17:09:15.938Z,101158.47
2023-08-08T17:11:43.455Z,101160.63
2023-08-08T17:14:10.899Z,101160.69
2023-08-08T17:16:39.110Z,101165.25
2023-08-08T17:19:08.379Z,101159.69
2023-08-08T17:21:35.765Z,101149.94
2023-08-08T17:24:05.011Z,101144.75
2023-08-08T17:26:32.556Z,101156.41
2023-08-08T17:28:59.984Z,101147.38
2023-08-08T17:31:27.353Z,101141.34
2023-08-08T17:33:56.969Z,101152.56
2023-08-08T17:36:25.560Z,101143.63
2023-08-08T17:38:52.917Z,101148.56
2023-08-08T17:41:20.377Z,101145.22
2023-08-08T17:43:48.642Z,101143.13
2023-08-08T17:46:16.019Z,101135.06
2023-08-08T17:48:43.442Z,101140.50
2023-08-08T17:51:10.966Z,101130.13
2023-08-08T17:53:38.440Z,101138.06
2023-08-08T17:56:06.856Z,101139.88
2023-08-08T17:58:34.275Z,101143.25
2023-08-08T18:01:01.613Z,101150.47
2023-08-08T18:03:29.732Z,101153.97
2023-08-08T18:05:58.385Z,101165.56
2023-08-08T18:08:25.797Z,101168.16
2023-08-08T18:10:53.143Z,101167.09
2023-08-08T18:13:21.229Z,101179.31
2023-08-08T18:15:50.319Z,101161.44
2023-08-08T18:18:19.307Z,101167.59
2023-08-08T18:20:47.133Z,101155.41
2023-08-08T18:23:14.602Z,101142.81
2023-08-08T18:25:43.530Z,101146.81
2023-08-08T18:28:10.959Z,101153.41
2023-08-08T18:30:38.389Z,101148.34
2023-08-08T18:33:05.873Z,101147.03
2023-08-08T18:35:33.636Z,101147.41
2023-08-08T18:38:00.965Z,101160.88
2023-08-08T18:40:28.420Z,101166.16
2023-08-08T18:42:56.233Z,101156.56
2023-08-08T18:45:23.938Z,101140.66
2023-08-08T18:47:53.786Z,101150.72
2023-08-08T18:50:22.856Z,101153.16
2023-08-08T18:52:52.547Z,101149.47
2023-08-08T18:55:20.494Z,101147.69
2023-08-08T18:57:47.882Z,101141.47
2023-08-08T19:00:16.739Z,101129.91
2023-08-08T19:02:44.254Z,101135.81
2023-08-08T19:05:11.954Z,101124.97
2023-08-08T19:07:41.120Z,101137.84
2023-08-08T19:10:09.455Z,101135.88
2023-08-08T19:12:37.028Z,101140.19
2023-08-08T19:15:07.946Z,101141.88
2023-08-08T19:17:49.543Z,101132.28
2023-08-08T19:20:22.759Z,101140.84
2023-08-08T19:22:50.178Z,101134.53
2023-08-08T19:25:17.892Z,101131.25
2023-08-08T19:27:45.373Z,101135.88
2023-08-08T19:30:13.661Z,101128.91
2023-08-08T19:32:41.176Z,101119.19
2023-08-08T19:35:08.792Z,101130.59
2023-08-08T19:37:36.286Z,101125.13
2023-08-08T19:40:04.391Z,101123.25
2023-08-08T19:42:31.751Z,101121.25
2023-08-08T19:44:59.256Z,101127.19
2023-08-08T19:47:26.713Z,101121.81
2023-08-08T19:49:54.108Z,101119.16
2023-08-08T19:52:21.528Z,101113.91
2023-08-08T19:54:48.856Z,101116.63
2023-08-08T19:57:16.723Z,101097.41
2023-08-08T19:59:44.199Z,101102.69
2023-08-08T20:02:11.628Z,101095.75
2023-08-08T20:04:39.156Z,101098.47
2023-08-08T20:07:06.668Z,101095.84
2023-08-08T20:09:34.856Z,101085.09
2023-08-08T20:12:02.529Z,101086.78
2023-08-08T20:14:32.049Z,101079.81
2023-08-08T20:16:59.983Z,101075.38
2023-08-08T20:19:27.644Z,101065.88
2023-08-08T20:21:57.326Z,101064.09
2023-08-08T20:24:25.037Z,101055.22
2023-08-08T20:26:53.053Z,101055.34
2023-08-08T20:29:20.403Z,101065.69
2023-08-08T20:31:47.772Z,101060.41
2023-08-08T20:34:15.108Z,101056.63
2023-08-08T20:36:42.532Z,101071.41
2023-08-08T20:39:10.348Z,101060.09
2023-08-08T20:41:37.804Z,101064.22
2023-08-08T20:44:05.805Z,101065.06
2023-08-08T20:46:33.257Z,101066.66
2023-08-08T20:49:00.672Z,101071.94
2023-08-08T20:51:28.157Z,101070.13
2023-08-08T20:53:55.472Z,101070.34
2023-08-08T20:56:22.926Z,101065.28
2023-08-08T20:58:50.424Z,101059.16
2023-08-08T21:01:17.828Z,101058.34
2023-08-08T21:03:45.218Z,101049.66
2023-08-08T21:06:12.525Z,101051.75
2023-08-08T21:08:39.954Z,101059.88
2023-08-08T21:11:07.445Z,101048.41
2023-08-08T21:13:34.834Z,101043.13
2023-08-08T21:16:02.582Z,101037.00
2023-08-08T21:18:29.960Z,101033.63
2023-08-08T21:20:57.415Z,101030.03
2023-08-08T21:23:24.820Z,101026.34
2023-08-08T21:25:52.132Z,101026.25
2023-08-08T21:28:19.461Z,101026.13
2023-08-08T21:30:46.815Z,101029.63
2023-08-08T21:33:14.238Z,101029.63
2023-08-08T21:35:41.643Z,101034.03
2023-08-08T21:38:11.447Z,101035.84
2023-08-08T21:40:39.835Z,101028.97
2023-08-08T21:43:07.465Z,101038.69
2023-08-08T21:45:35.945Z,101031.72
2023-08-08T21:48:03.745Z,101025.50
2023-08-08T21:50:31.194Z,101019.72
2023-08-08T21:52:58.544Z,101013.47
2023-08-08T21:55:26.041Z,101024.13
2023-08-08T21:57:55.722Z,101012.22
2023-08-08T22:00:23.257Z,101023.69
2023-08-08T22:02:50.665Z,101020.94
2023-08-08T22:05:18.090Z,101020.84
2023-08-08T22:07:45.520Z,101013.03
2023-08-08T22:10:13.056Z,101006.84
2023-08-08T22:12:40.405Z,101013.66
2023-08-08T22:15:11.228Z,101018.84
2023-08-08T22:17:38.739Z,101020.44
2023-08-08T22:20:07.752Z,101017.28
2023-08-08T22:22:36.455Z,101016.50
2023-08-08T22:25:04.516Z,101019.56
2023-08-08T22:27:31.884Z,101018.28
2023-08-08T22:29:59.332Z,101014.75
2023-08-08T22:32:26.848Z,101023.78
2023-08-08T22:34:55.877Z,101022.31
2023-08-08T22:37:23.277Z,101020.53
2023-08-08T22:39:50.619Z,101033.91
2023-08-08T22:42:17.992Z,101034.81
2023-08-08T22:44:45.392Z,101046.44
2023-08-08T22:47:12.759Z,101049.25
2023-08-08T22:49:40.122Z,101048.38
2023-08-08T22:52:07.488Z,101037.22
2023-08-08T22:54:34.848Z,101032.69
2023-08-08T22:57:02.649Z,101038.81
2023-08-08T22:59:30.292Z,101023.94
2023-08-08T23:01:57.660Z,101033.75
2023-08-08T23:04:25.073Z,101032.03
2023-08-08T23:06:52.457Z,101043.41
2023-08-08T23:09:19.854Z,101031.22
2023-08-08T23:11:47.163Z,101038.63
2023-08-08T23:14:14.454Z,101038.84
2023-08-08T23:16:41.879Z,101041.56
2023-08-08T23:19:09.876Z,101044.50
2023-08-08T23:21:37.200Z,101042.16
2023-08-08T23:24:05.035Z,101043.22
2023-08-08T23:26:32.438Z,101037.84
2023-08-08T23:29:00.194Z,101040.47
2023-08-08T23:31:27.568Z,101036.25
2023-08-08T23:33:54.906Z,101039.81
2023-08-08T23:36:22.436Z,101030.34
2023-08-08T23:38:49.909Z,101022.34
2023-08-08T23:41:21.050Z,101008.31
2023-08-08T23:43:48.981Z,101010.94
2023-08-08T23:46:16.613Z,101013.56
2023-08-08T23:48:44.182Z,101023.47
2023-08-08T23:51:11.477Z,101035.22
2023-08-08T23:53:39.629Z,101031.06
2023-08-08T23:56:07.288Z,101041.69
2023-08-08T23:58:34.659Z,101034.63
